createdAt,value
2024-02-09T00:01:53.082Z,2.63
2024-02-09T00:04:21.375Z,2.10
2024-02-09T00:06:48.405Z,2.00
2024-02-09T00:09:15.380Z,1.58
2024-02-09T00:11:42.247Z,1.67
2024-02-09T00:14:09.158Z,1.58
2024-02-09T00:16:36.130Z,1.45
2024-02-09T00:19:03.140Z,2.22
2024-02-09T00:21:31.470Z,1.98
2024-02-09T00:23:58.412Z,2.15
2024-02-09T00:26:25.312Z,1.20
2024-02-09T00:28:53.309Z,1.63
2024-02-09T00:31:22.538Z,1.52
2024-02-09T00:33:49.587Z,1.77
2024-02-09T00:36:16.646Z,1.50
2024-02-09T00:38:44.907Z,1.48
2024-02-09T00:41:17.481Z,1.50
2024-02-09T00:43:44.497Z,1.88
2024-02-09T00:46:11.556Z,1.67
2024-02-09T00:48:38.509Z,1.60
2024-02-09T00:51:05.510Z,1.45
2024-02-09T00:53:32.459Z,1.15
2024-02-09T00:56:00.756Z,1.67
2024-02-09T00:58:27.806Z,1.60
2024-02-09T01:00:54.854Z,1.38
2024-02-09T01:03:21.936Z,1.45
2024-02-09T01:05:49.080Z,1.58
2024-02-09T01:08:16.068Z,1.80
2024-02-09T01:10:43.069Z,2.13
2024-02-09T01:13:11.510Z,1.63
2024-02-09T01:15:38.579Z,1.58
2024-02-09T01:18:05.626Z,2.63
2024-02-09T01:20:32.523Z,1.70
2024-02-09T01:22:59.278Z,1.67
2024-02-09T01:25:26.063Z,1.65
2024-02-09T01:27:52.891Z,1.67
2024-02-09T01:30:21.131Z,8.80
2024-02-09T01:32:47.933Z,2.08
2024-02-09T01:35:14.874Z,1.92
2024-02-09T01:37:41.680Z,1.83
2024-02-09T01:40:09.768Z,2.00
2024-02-09T01:42:36.631Z,1.70
2024-02-09T01:45:03.674Z,2.20
2024-02-09T01:47:31.929Z,1.75
2024-02-09T01:49:59.272Z,1.48
2024-02-09T01:52:27.276Z,1.80
2024-02-09T01:54:54.259Z,2.30
2024-02-09T01:57:21.117Z,1.90
2024-02-09T01:59:51.809Z,1.33
2024-02-09T02:02:18.749Z,1.90
2024-02-09T02:04:47.000Z,1.65
2024-02-09T02:07:15.853Z,1.70
2024-02-09T02:09:42.690Z,1.75
2024-02-09T02:12:09.516Z,1.65
2024-02-09T02:14:36.307Z,1.88
2024-02-09T02:17:03.111Z,2.00
2024-02-09T02:19:29.958Z,1.90
2024-02-09T02:22:05.796Z,2.22
2024-02-09T02:24:35.009Z,1.65
2024-02-09T02:27:01.797Z,1.38
2024-02-09T02:29:33.912Z,1.67
2024-02-09T02:32:00.709Z,1.50
2024-02-09T02:34:27.588Z,1.70
2024-02-09T02:36:55.859Z,1.52
2024-02-09T02:39:24.007Z,1.80
2024-02-09T02:41:50.842Z,1.83
2024-02-09T02:44:17.656Z,1.77
2024-02-09T02:46:45.924Z,1.50
2024-02-09T02:49:12.917Z,2.00
2024-02-09T02:51:39.845Z,1.73
2024-02-09T02:54:06.606Z,1.40
2024-02-09T02:56:34.705Z,1.65
2024-02-09T02:59:01.474Z,1.92
2024-02-09T03:01:28.312Z,1.73
2024-02-09T03:03:55.184Z,2.08
2024-02-09T03:06:21.996Z,2.15
2024-02-09T03:08:49.348Z,2.30
2024-02-09T03:11:16.283Z,2.95
2024-02-09T03:13:44.486Z,2.72
2024-02-09T03:16:11.291Z,2.70
2024-02-09T03:18:38.120Z,1.70
2024-02-09T03:21:05.262Z,2.45
2024-02-09T03:23:32.018Z,1.98
2024-02-09T03:25:58.769Z,1.85
2024-02-09T03:28:25.612Z,1.75
2024-02-09T03:30:53.779Z,2.00
2024-02-09T03:33:20.632Z,2.22
2024-02-09T03:35:47.633Z,2.05
2024-02-09T03:38:14.454Z,2.05
2024-02-09T03:40:41.323Z,1.73
2024-02-09T03:43:08.302Z,1.80
2024-02-09T03:45:35.144Z,2.55
2024-02-09T03:48:03.394Z,1.65
2024-02-09T03:50:30.241Z,1.95
2024-02-09T03:52:56.973Z,1.88
2024-02-09T03:55:23.767Z,1.77
2024-02-09T03:57:50.550Z,1.73
2024-02-09T04:00:17.998Z,2.25
2024-02-09T04:02:45.252Z,1.90
2024-02-09T04:05:13.721Z,2.13
2024-02-09T04:07:40.623Z,2.30
2024-02-09T04:12:37.995Z,1.48
2024-02-09T04:15:05.838Z,2.13
2024-02-09T04:17:32.766Z,2.38
2024-02-09T04:19:59.636Z,1.75
2024-02-09T04:22:27.757Z,1.67
2024-02-09T04:24:54.579Z,1.55
2024-02-09T04:27:21.324Z,2.08
2024-02-09T04:29:48.075Z,1.60
2024-02-09T04:32:14.824Z,1.83
2024-02-09T04:34:41.721Z,2.47
2024-02-09T04:37:08.583Z,2.00
2024-02-09T04:39:36.739Z,2.00
2024-02-09T04:42:03.957Z,1.70
2024-02-09T04:44:30.716Z,2.08
2024-02-09T04:46:57.454Z,2.35
2024-02-09T04:49:24.254Z,2.55
2024-02-09T04:51:51.043Z,1.98
2024-02-09T04:54:17.831Z,2.25
2024-02-09T04:56:45.925Z,2.17
2024-02-09T04:59:13.161Z,1.98
2024-02-09T05:01:42.500Z,2.00
2024-02-09T05:04:11.291Z,1.80
2024-02-09T05:06:38.818Z,2.20
2024-02-09T05:09:06.930Z,2.60
2024-02-09T05:11:34.692Z,2.60
2024-02-09T05:14:02.879Z,2.10
2024-02-09T05:16:29.803Z,2.47
2024-02-09T05:18:56.744Z,2.47
2024-02-09T05:21:23.551Z,3.00
2024-02-09T05:23:50.527Z,1.98
2024-02-09T05:26:19.412Z,2.53
2024-02-09T05:28:46.505Z,2.15
2024-02-09T05:31:15.845Z,2.00
2024-02-09T05:33:43.146Z,1.92
2024-02-09T05:36:19.131Z,2.00
2024-02-09T05:38:46.023Z,2.22
2024-02-09T05:41:12.849Z,2.42
2024-02-09T05:43:40.633Z,2.17
2024-02-09T05:46:07.480Z,2.42
2024-02-09T05:48:35.678Z,2.78
2024-02-09T05:51:02.684Z,4.07
2024-02-09T05:53:29.447Z,3.55
2024-02-09T05:55:56.179Z,2.40
2024-02-09T05:58:23.037Z,2.22
2024-02-09T06:00:50.110Z,2.05
2024-02-09T06:03:16.887Z,2.15
2024-02-09T06:05:45.041Z,2.30
2024-02-09T06:08:11.820Z,2.25
2024-02-09T06:10:38.621Z,3.00
2024-02-09T06:13:05.694Z,4.82
2024-02-09T06:15:32.502Z,3.70
2024-02-09T06:17:59.305Z,4.05
2024-02-09T06:20:26.109Z,3.17
2024-02-09T06:22:56.936Z,2.90
2024-02-09T06:25:25.363Z,3.63
2024-02-09T06:27:52.138Z,3.15
2024-02-09T06:30:18.926Z,2.85
2024-02-09T06:32:45.767Z,2.83
2024-02-09T06:35:12.841Z,2.58
2024-02-09T06:37:39.948Z,1.95
2024-02-09T06:40:09.609Z,2.42
2024-02-09T06:42:36.461Z,1.85
2024-02-09T06:45:03.347Z,2.35
2024-02-09T06:47:30.265Z,1.90
2024-02-09T06:49:57.130Z,2.30
2024-02-09T06:52:23.978Z,2.50
2024-02-09T06:54:50.817Z,2.05
2024-02-09T06:57:18.970Z,2.15
2024-02-09T06:59:45.726Z,2.17
2024-02-09T07:02:12.841Z,2.47
2024-02-09T07:04:39.891Z,2.63
2024-02-09T07:07:06.971Z,2.25
2024-02-09T07:09:34.593Z,1.90
2024-02-09T07:12:02.621Z,2.92
2024-02-09T07:14:30.770Z,1.98
2024-02-09T07:16:57.537Z,2.08
2024-02-09T07:19:24.502Z,2.40
2024-02-09T07:21:51.405Z,2.10
2024-02-09T07:24:18.276Z,2.78
2024-02-09T07:26:45.047Z,2.50
2024-02-09T07:29:11.844Z,2.33
2024-02-09T07:31:40.200Z,2.00
2024-02-09T07:34:07.077Z,2.20
2024-02-09T07:36:33.908Z,2.10
2024-02-09T07:39:00.709Z,1.90
2024-02-09T07:41:27.510Z,2.60
2024-02-09T07:43:54.292Z,2.42
2024-02-09T07:46:21.212Z,2.65
2024-02-09T07:48:49.550Z,2.22
2024-02-09T07:51:16.476Z,2.10
2024-02-09T07:53:43.265Z,2.17
2024-02-09T07:56:10.088Z,2.05
2024-02-09T07:58:36.939Z,2.30
2024-02-09T08:01:04.008Z,2.78
2024-02-09T08:03:30.998Z,2.47
2024-02-09T08:05:59.286Z,2.30
2024-02-09T08:08:26.137Z,2.50
2024-02-09T08:10:52.932Z,2.88
2024-02-09T08:13:19.826Z,2.53
2024-02-09T08:15:46.722Z,2.30
2024-02-09T08:18:13.483Z,2.75
2024-02-09T08:20:40.292Z,5.40
2024-02-09T08:23:08.495Z,4.68
2024-02-09T08:25:35.326Z,4.38
2024-02-09T08:28:02.212Z,3.53
2024-02-09T08:30:29.186Z,4.32
2024-02-09T08:32:56.012Z,3.03
2024-02-09T08:35:22.953Z,2.13
2024-02-09T08:37:49.839Z,2.80
2024-02-09T08:40:18.158Z,2.30
2024-02-09T08:42:47.797Z,2.80
2024-02-09T08:45:15.877Z,3.13
2024-02-09T08:47:42.651Z,2.75
2024-02-09T08:50:09.721Z,2.75
2024-02-09T08:52:36.636Z,2.50
2024-02-09T08:55:03.670Z,3.25
2024-02-09T08:57:31.879Z,2.42
2024-02-09T08:59:58.637Z,2.17
2024-02-09T09:02:25.833Z,2.40
2024-02-09T09:04:52.730Z,3.00
2024-02-09T09:07:19.831Z,2.45
2024-02-09T09:09:46.706Z,2.33
2024-02-09T09:12:14.258Z,2.60
2024-02-09T09:14:42.535Z,2.90
2024-02-09T09:17:18.040Z,2.50
2024-02-09T09:19:51.254Z,2.47
2024-02-09T09:22:18.219Z,2.40
2024-02-09T09:24:45.028Z,2.10
2024-02-09T09:27:11.825Z,1.75
2024-02-09T09:29:38.615Z,2.25
2024-02-09T09:32:07.590Z,2.05
2024-02-09T09:34:34.545Z,1.95
2024-02-09T09:37:01.415Z,2.08
2024-02-09T09:39:28.741Z,2.40
2024-02-09T09:41:55.821Z,1.65
2024-02-09T09:44:22.867Z,1.70
2024-02-09T09:46:50.087Z,2.30
2024-02-09T09:49:19.523Z,1.58
2024-02-09T09:51:51.461Z,1.70
2024-02-09T09:54:21.479Z,1.77
2024-02-09T09:56:49.522Z,1.70
2024-02-09T09:59:18.546Z,1.73
2024-02-09T10:01:45.566Z,1.65
2024-02-09T10:04:12.589Z,1.27
2024-02-09T10:06:40.978Z,1.85
2024-02-09T10:09:07.856Z,1.98
2024-02-09T10:11:35.251Z,1.90
2024-02-09T10:14:02.118Z,1.52
2024-02-09T10:16:28.974Z,2.15
2024-02-09T10:18:55.800Z,0.95
2024-02-09T10:21:22.628Z,1.52
2024-02-09T10:23:50.738Z,1.35
2024-02-09T10:26:17.559Z,1.50
2024-02-09T10:28:44.483Z,1.27
2024-02-09T10:31:11.320Z,1.80
2024-02-09T10:33:38.892Z,1.42
2024-02-09T10:36:07.000Z,1.55
2024-02-09T10:38:34.173Z,1.48
2024-02-09T10:41:03.674Z,1.50
2024-02-09T10:43:33.151Z,1.52
2024-02-09T10:46:00.350Z,1.20
2024-02-09T10:48:34.400Z,1.33
2024-02-09T10:53:28.700Z,1.02
2024-02-09T10:56:01.591Z,1.50
2024-02-09T10:58:33.411Z,1.20
2024-02-09T11:01:01.046Z,1.15
2024-02-09T11:03:28.492Z,1.40
2024-02-09T11:05:55.999Z,1.42
2024-02-09T11:08:23.511Z,0.90
2024-02-09T11:10:58.315Z,1.60
2024-02-09T11:13:25.193Z,1.15
2024-02-09T11:15:56.717Z,1.40
2024-02-09T11:18:23.568Z,1.52
2024-02-09T11:20:50.357Z,1.27
2024-02-09T11:23:17.160Z,1.42
2024-02-09T11:25:46.547Z,1.52
2024-02-09T11:28:14.470Z,1.00
2024-02-09T11:30:41.267Z,1.40
2024-02-09T11:33:12.409Z,1.63
2024-02-09T11:35:39.216Z,1.38
2024-02-09T11:38:05.983Z,1.02
2024-02-09T11:40:32.782Z,1.17
2024-02-09T11:42:59.588Z,1.30
2024-02-09T11:45:26.440Z,1.38
2024-02-09T11:47:53.338Z,1.65
2024-02-09T11:50:23.312Z,1.55
2024-02-09T11:53:01.326Z,1.60
2024-02-09T11:55:39.636Z,2.22
2024-02-09T11:58:08.239Z,1.45
2024-02-09T12:00:35.590Z,1.27
2024-02-09T12:03:02.578Z,1.23
2024-02-09T12:05:30.929Z,1.50
2024-02-09T12:07:57.939Z,1.25
2024-02-09T12:10:24.914Z,1.55
2024-02-09T12:12:51.668Z,1.35
2024-02-09T12:15:18.685Z,1.73
2024-02-09T12:17:45.593Z,1.38
2024-02-09T12:20:13.223Z,1.23
2024-02-09T12:22:41.873Z,1.20
2024-02-09T12:25:09.538Z,1.23
2024-02-09T12:27:36.366Z,1.38
2024-02-09T12:30:04.043Z,1.30
2024-02-09T12:32:32.716Z,1.05
2024-02-09T12:34:59.667Z,1.50
2024-02-09T12:37:26.500Z,1.05
2024-02-09T12:39:54.721Z,1.30
2024-02-09T12:42:21.814Z,1.05
2024-02-09T12:44:48.574Z,0.90
2024-02-09T12:47:15.396Z,1.23
2024-02-09T12:49:42.342Z,1.60
2024-02-09T12:52:09.901Z,1.50
2024-02-09T12:54:36.933Z,1.20
2024-02-09T12:57:05.656Z,1.15
2024-02-09T12:59:32.703Z,1.30
2024-02-09T13:01:59.489Z,1.40
2024-02-09T13:04:26.402Z,1.20
2024-02-09T13:06:53.209Z,1.25
2024-02-09T13:09:20.717Z,1.05
2024-02-09T13:11:48.031Z,1.20
2024-02-09T13:14:19.099Z,1.40
2024-02-09T13:16:47.008Z,1.10
2024-02-09T13:19:13.983Z,1.30
2024-02-09T13:21:40.789Z,1.50
2024-02-09T13:24:07.609Z,1.10
2024-02-09T13:26:34.525Z,1.40
2024-02-09T13:29:01.359Z,1.08
2024-02-09T13:31:29.860Z,1.30
2024-02-09T13:33:56.893Z,1.65
2024-02-09T13:36:23.701Z,3.58
2024-02-09T13:38:50.477Z,3.55
2024-02-09T13:41:17.284Z,2.25
2024-02-09T13:43:44.143Z,2.50
2024-02-09T13:46:10.976Z,4.28
2024-02-09T13:48:39.144Z,4.43
2024-02-09T13:51:06.360Z,5.03
2024-02-09T13:53:33.140Z,15.13
2024-02-09T13:55:59.955Z,4.28
2024-02-09T13:58:26.764Z,11.30
2024-02-09T14:00:53.885Z,7.63
2024-02-09T14:03:20.724Z,4.35
2024-02-09T14:05:51.186Z,3.35
2024-02-09T14:08:18.565Z,2.70
2024-02-09T14:10:45.463Z,2.45
2024-02-09T14:13:12.312Z,3.30
2024-02-09T14:15:39.092Z,2.80
2024-02-09T14:18:06.072Z,2.85
2024-02-09T14:20:32.838Z,2.20
2024-02-09T14:23:04.150Z,2.75
2024-02-09T14:25:31.690Z,2.88
2024-02-09T14:27:58.564Z,3.70
2024-02-09T14:30:25.401Z,2.92
2024-02-09T14:32:52.210Z,2.88
2024-02-09T14:35:19.174Z,2.22
2024-02-09T14:37:46.343Z,2.65
2024-02-09T14:40:14.642Z,1.98
2024-02-09T14:42:41.445Z,2.90
2024-02-09T14:45:09.593Z,2.78
2024-02-09T14:47:36.418Z,2.40
2024-02-09T14:50:03.596Z,2.22
2024-02-09T14:52:30.468Z,2.30
2024-02-09T14:54:59.911Z,2.20
2024-02-09T14:57:30.172Z,3.38
2024-02-09T14:59:57.405Z,3.05
2024-02-09T15:02:24.940Z,2.28
2024-02-09T15:04:54.648Z,2.00
2024-02-09T15:07:22.094Z,2.33
2024-02-09T15:09:49.530Z,1.65
2024-02-09T15:12:16.676Z,2.13
2024-02-09T15:14:45.261Z,2.78
2024-02-09T15:17:15.630Z,2.55
2024-02-09T15:19:43.083Z,1.50
2024-02-09T15:22:10.959Z,2.08
2024-02-09T15:24:38.309Z,2.03
2024-02-09T15:27:05.987Z,2.13
2024-02-09T15:29:33.225Z,1.58
2024-02-09T15:32:01.961Z,1.67
2024-02-09T15:34:29.566Z,1.50
2024-02-09T15:36:57.004Z,1.75
2024-02-09T15:39:24.051Z,1.67
2024-02-09T15:41:51.214Z,2.15
2024-02-09T15:44:18.307Z,2.45
2024-02-09T15:46:45.903Z,1.92
2024-02-09T15:49:14.180Z,2.00
2024-02-09T15:51:40.982Z,1.88
2024-02-09T15:54:07.741Z,1.38
2024-02-09T15:56:34.569Z,1.85
2024-02-09T15:59:02.550Z,2.03
2024-02-09T16:01:32.704Z,1.85
2024-02-09T16:03:59.493Z,2.95
2024-02-09T16:06:27.858Z,2.35
2024-02-09T16:08:54.712Z,2.97
2024-02-09T16:11:21.736Z,2.53
2024-02-09T16:13:48.721Z,3.50
2024-02-09T16:16:15.691Z,3.42
2024-02-09T16:18:42.583Z,3.30
2024-02-09T16:21:12.078Z,3.08
2024-02-09T16:23:41.695Z,2.90
2024-02-09T16:26:09.405Z,3.95
2024-02-09T16:28:36.268Z,4.65
2024-02-09T16:31:03.025Z,4.57
2024-02-09T16:33:30.363Z,3.75
2024-02-09T16:35:57.161Z,5.03
2024-02-09T16:38:23.944Z,4.22
2024-02-09T16:40:52.095Z,4.30
2024-02-09T16:43:18.962Z,9.45
2024-02-09T16:45:45.740Z,13.65
2024-02-09T16:48:12.587Z,11.38
2024-02-09T16:50:39.623Z,9.65
2024-02-09T16:53:06.666Z,5.07
2024-02-09T16:55:33.745Z,6.50
2024-02-09T16:58:02.294Z,7.45
2024-02-09T17:00:29.451Z,5.05
2024-02-09T17:02:56.515Z,4.90
2024-02-09T17:05:23.579Z,5.00
2024-02-09T17:07:50.637Z,5.32
2024-02-09T17:10:17.747Z,4.10
2024-02-09T17:12:44.782Z,4.53
2024-02-09T17:15:13.131Z,4.35
2024-02-09T17:17:40.087Z,3.80
2024-02-09T17:20:08.168Z,2.95
2024-02-09T17:22:35.081Z,2.58
2024-02-09T17:25:02.016Z,2.72
2024-02-09T17:27:28.849Z,3.10
2024-02-09T17:29:55.673Z,3.20
2024-02-09T17:32:24.004Z,2.85
2024-02-09T17:34:51.726Z,2.60
2024-02-09T17:37:18.556Z,2.50
2024-02-09T17:39:45.393Z,2.70
2024-02-09T17:42:12.168Z,2.85
2024-02-09T17:44:38.927Z,2.58
2024-02-09T17:47:05.735Z,2.53
2024-02-09T17:49:33.828Z,3.63
2024-02-09T17:52:00.878Z,3.25
2024-02-09T17:54:27.614Z,2.88
2024-02-09T17:56:54.381Z,3.45
2024-02-09T17:59:21.173Z,2.55
2024-02-09T18:01:48.116Z,2.50
2024-02-09T18:04:16.174Z,2.55
2024-02-09T18:06:44.402Z,3.20
2024-02-09T18:09:13.166Z,2.95
2024-02-09T18:11:40.077Z,2.75
2024-02-09T18:14:06.866Z,4.07
2024-02-09T18:16:33.717Z,5.10
2024-02-09T18:19:00.598Z,3.50
2024-02-09T18:21:27.457Z,3.08
2024-02-09T18:23:55.564Z,2.65
2024-02-09T18:26:22.331Z,7.63
2024-02-09T18:28:49.101Z,5.63
2024-02-09T18:31:16.088Z,8.18
2024-02-09T18:33:42.927Z,6.95
2024-02-09T18:36:09.843Z,4.90
2024-02-09T18:38:36.618Z,5.10
2024-02-09T18:41:05.000Z,5.60
2024-02-09T18:43:32.571Z,4.22
2024-02-09T18:45:59.561Z,3.75
2024-02-09T18:48:26.555Z,3.65
2024-02-09T18:50:53.453Z,4.65
2024-02-09T18:53:20.250Z,3.90
2024-02-09T18:55:47.066Z,4.85
2024-02-09T18:58:15.435Z,5.07
2024-02-09T19:00:42.757Z,3.90
2024-02-09T19:03:09.710Z,2.90
2024-02-09T19:05:36.689Z,3.50
2024-02-09T19:08:03.969Z,4.22
2024-02-09T19:10:33.693Z,3.53
2024-02-09T19:13:02.340Z,3.85
2024-02-09T19:15:30.514Z,3.75
2024-02-09T19:17:57.337Z,3.03
2024-02-09T19:20:24.193Z,3.85
2024-02-09T19:22:51.106Z,3.03
2024-02-09T19:25:17.898Z,3.38
2024-02-09T19:27:44.648Z,3.80
2024-02-09T19:30:12.294Z,4.15
2024-02-09T19:32:40.637Z,3.50
2024-02-09T19:35:07.946Z,3.83
2024-02-09T19:37:34.772Z,5.57
2024-02-09T19:40:01.725Z,5.53
2024-02-09T19:42:30.065Z,4.03
2024-02-09T19:44:57.082Z,4.32
2024-02-09T19:47:23.846Z,5.25
2024-02-09T19:49:51.974Z,3.88
2024-02-09T19:52:19.275Z,3.55
2024-02-09T19:54:46.111Z,3.80
2024-02-09T19:57:12.931Z,3.75
2024-02-09T19:59:39.686Z,3.70
2024-02-09T20:02:09.078Z,5.03
2024-02-09T20:04:37.264Z,3.85
2024-02-09T20:07:05.462Z,4.18
2024-02-09T20:09:33.463Z,3.70
2024-02-09T20:12:01.281Z,3.55
2024-02-09T20:14:28.288Z,4.22
2024-02-09T20:16:55.040Z,4.65
2024-02-09T20:19:21.865Z,4.80
2024-02-09T20:21:48.640Z,4.55
2024-02-09T20:24:16.749Z,4.40
2024-02-09T20:26:43.699Z,4.30
2024-02-09T20:29:10.476Z,4.20
2024-02-09T20:31:38.091Z,3.78
2024-02-09T20:34:05.376Z,3.83
2024-02-09T20:36:32.160Z,4.03
2024-02-09T20:38:58.974Z,5.20
2024-02-09T20:41:27.119Z,4.60
2024-02-09T20:43:53.991Z,5.00
2024-02-09T20:46:21.258Z,3.72
2024-02-09T20:48:48.469Z,3.90
2024-02-09T20:51:15.345Z,3.75
2024-02-09T20:53:42.189Z,4.22
2024-02-09T20:56:09.001Z,4.53
2024-02-09T20:58:37.190Z,3.92
2024-02-09T21:01:04.366Z,3.50
2024-02-09T21:03:31.154Z,4.10
2024-02-09T21:05:57.995Z,4.13
2024-02-09T21:08:24.824Z,4.53
2024-02-09T21:10:51.649Z,4.43
2024-02-09T21:13:18.489Z,3.33
2024-02-09T21:15:46.656Z,3.78
2024-02-09T21:18:13.541Z,5.15
2024-02-09T21:20:40.378Z,3.75
2024-02-09T21:23:07.164Z,4.18
2024-02-09T21:25:34.034Z,3.97
2024-02-09T21:28:00.843Z,4.20
2024-02-09T21:30:27.629Z,5.72
2024-02-09T21:32:59.970Z,5.00
2024-02-09T21:35:29.168Z,3.95
2024-02-09T21:37:55.963Z,4.55
2024-02-09T21:40:22.782Z,4.55
2024-02-09T21:42:49.551Z,4.00
2024-02-09T21:45:16.538Z,4.63
2024-02-09T21:47:43.346Z,4.10
2024-02-09T21:50:11.775Z,3.88
2024-02-09T21:52:38.846Z,3.63
2024-02-09T21:55:06.740Z,4.30
2024-02-09T21:57:33.827Z,4.10
2024-02-09T22:00:00.557Z,4.50
2024-02-09T22:02:27.317Z,3.70
2024-02-09T22:04:54.751Z,4.15
2024-02-09T22:07:23.087Z,3.95
2024-02-09T22:09:50.309Z,2.97
2024-02-09T22:12:23.758Z,3.25
2024-02-09T22:14:50.481Z,3.38
2024-02-09T22:17:17.229Z,4.65
2024-02-09T22:19:44.107Z,3.45
2024-02-09T22:22:11.066Z,3.80
2024-02-09T22:24:39.227Z,3.08
2024-02-09T22:27:05.966Z,2.97
2024-02-09T22:29:32.698Z,3.58
2024-02-09T22:31:59.550Z,3.55
2024-02-09T22:34:26.368Z,3.42
2024-02-09T22:36:53.123Z,3.20
2024-02-09T22:39:21.770Z,3.38
2024-02-09T22:41:51.639Z,3.72
2024-02-09T22:44:20.327Z,3.20
2024-02-09T22:46:48.142Z,3.08
2024-02-09T22:49:15.232Z,4.20
2024-02-09T22:51:42.163Z,3.53
2024-02-09T22:54:09.336Z,4.30
2024-02-09T22:56:36.165Z,4.10
2024-02-09T22:59:04.283Z,4.13
2024-02-09T23:01:31.240Z,3.30
2024-02-09T23:03:58.151Z,3.33
2024-02-09T23:06:25.032Z,3.25
2024-02-09T23:08:52.012Z,3.15
2024-02-09T23:11:18.892Z,3.90
2024-02-09T23:13:45.788Z,4.50
2024-02-09T23:16:14.019Z,3.42
2024-02-09T23:18:40.888Z,3.65
2024-02-09T23:21:07.735Z,4.22
2024-02-09T23:23:35.588Z,3.70
2024-02-09T23:26:02.429Z,4.18
2024-02-09T23:28:29.308Z,4.82
2024-02-09T23:30:56.219Z,5.38
2024-02-09T23:33:24.340Z,4.57
2024-02-09T23:35:51.203Z,4.50
2024-02-09T23:38:17.978Z,3.97
2024-02-09T23:40:44.785Z,4.40
2024-02-09T23:43:11.631Z,4.60
2024-02-09T23:45:38.453Z,3.45
2024-02-09T23:48:06.297Z,4.38
2024-02-09T23:50:34.507Z,3.97
2024-02-09T23:53:01.373Z,4.18
2024-02-09T23:55:28.249Z,4.32
2024-02-09T23:57:55.244Z,4.13
